sensor_id;sensor_type;location;lat;lon;timestamp;P1;durP1;ratioP1;P2;durP2;ratioP2
73672;SDS011;61972;19.480;-99.240;2022-09-09T00:00:38;4.53;;;3.80;;
73672;SDS011;61972;19.480;-99.240;2022-09-09T00:06:14;4.20;;;3.25;;
73672;SDS011;61972;19.480;-99.240;2022-09-09T00:14:26;5.20;;;3.53;;
73672;SDS011;61972;19.480;-99.240;2022-09-09T00:17:12;5.30;;;3.70;;
73672;SDS011;61972;19.480;-99.240;2022-09-09T00:20:20;7.35;;;4.43;;
73672;SDS011;61972;19.480;-99.240;2022-09-09T00:26:11;6.38;;;4.03;;
73672;SDS011;61972;19.480;-99.240;2022-09-09T00:28:42;5.97;;;4.00;;
73672;SDS011;61972;19.480;-99.240;2022-09-09T00:31:49;7.53;;;4.10;;
73672;SDS011;61972;19.480;-99.240;2022-09-09T00:34:20;10.57;;;3.90;;
73672;SDS011;61972;19.480;-99.240;2022-09-09T00:36:50;6.00;;;4.18;;
73672;SDS011;61972;19.480;-99.240;2022-09-09T00:41:56;5.33;;;3.90;;
73672;SDS011;61972;19.480;-99.240;2022-09-09T00:45:33;10.07;;;3.80;;
73672;SDS011;61972;19.480;-99.240;2022-09-09T00:48:14;4.82;;;3.92;;
73672;SDS011;61972;19.480;-99.240;2022-09-09T00:56:30;5.77;;;4.10;;
73672;SDS011;61972;19.480;-99.240;2022-09-09T01:01:42;5.75;;;4.03;;
73672;SDS011;61972;19.480;-99.240;2022-09-09T01:04:11;6.47;;;4.30;;
73672;SDS011;61972;19.480;-99.240;2022-09-09T01:06:42;6.20;;;4.32;;
73672;SDS011;61972;19.480;-99.240;2022-09-09T01:14:52;6.55;;;4.20;;
73672;SDS011;61972;19.480;-99.240;2022-09-09T01:17:26;5.43;;;3.67;;
73672;SDS011;61972;19.480;-99.240;2022-09-09T01:20:14;5.93;;;4.60;;
73672;SDS011;61972;19.480;-99.240;2022-09-09T01:22:50;5.67;;;4.17;;
73672;SDS011;61972;19.480;-99.240;2022-09-09T01:25:28;6.30;;;4.45;;
73672;SDS011;61972;19.480;-99.240;2022-09-09T01:28:19;5.65;;;4.60;;
73672;SDS011;61972;19.480;-99.240;2022-09-09T01:30:50;7.60;;;4.18;;
73672;SDS011;61972;19.480;-99.240;2022-09-09T01:33:17;6.50;;;4.38;;
73672;SDS011;61972;19.480;-99.240;2022-09-09T01:38:25;6.13;;;4.50;;
73672;SDS011;61972;19.480;-99.240;2022-09-09T01:40:53;7.10;;;4.68;;
73672;SDS011;61972;19.480;-99.240;2022-09-09T01:43:22;4.93;;;4.05;;
73672;SDS011;61972;19.480;-99.240;2022-09-09T01:45:51;8.98;;;4.72;;
73672;SDS011;61972;19.480;-99.240;2022-09-09T01:48:23;5.90;;;4.13;;
73672;SDS011;61972;19.480;-99.240;2022-09-09T01:50:50;5.47;;;4.40;;
73672;SDS011;61972;19.480;-99.240;2022-09-09T01:53:17;6.55;;;4.20;;
73672;SDS011;61972;19.480;-99.240;2022-09-09T02:01:16;7.20;;;3.70;;
73672;SDS011;61972;19.480;-99.240;2022-09-09T02:03:44;5.85;;;3.58;;
73672;SDS011;61972;19.480;-99.240;2022-09-09T02:06:34;6.55;;;3.53;;
73672;SDS011;61972;19.480;-99.240;2022-09-09T02:09:06;9.05;;;3.33;;
73672;SDS011;61972;19.480;-99.240;2022-09-09T02:11:39;6.30;;;3.40;;
73672;SDS011;61972;19.480;-99.240;2022-09-09T02:14:12;5.40;;;3.40;;
73672;SDS011;61972;19.480;-99.240;2022-09-09T02:19:41;5.65;;;3.20;;
73672;SDS011;61972;19.480;-99.240;2022-09-09T02:22:15;4.85;;;3.00;;
73672;SDS011;61972;19.480;-99.240;2022-09-09T02:24:44;5.85;;;3.08;;
73672;SDS011;61972;19.480;-99.240;2022-09-09T02:27:14;4.70;;;2.80;;
73672;SDS011;61972;19.480;-99.240;2022-09-09T02:29:42;4.90;;;3.10;;
73672;SDS011;61972;19.480;-99.240;2022-09-09T02:32:15;6.38;;;2.80;;
73672;SDS011;61972;19.480;-99.240;2022-09-09T02:34:46;5.63;;;2.67;;
73672;SDS011;61972;19.480;-99.240;2022-09-09T02:37:20;5.53;;;2.83;;
73672;SDS011;61972;19.480;-99.240;2022-09-09T02:39:50;5.13;;;2.60;;
73672;SDS011;61972;19.480;-99.240;2022-09-09T02:42:22;5.20;;;2.70;;
73672;SDS011;61972;19.480;-99.240;2022-09-09T02:44:49;4.55;;;2.67;;
73672;SDS011;61972;19.480;-99.240;2022-09-09T02:50:05;4.63;;;2.50;;
73672;SDS011;61972;19.480;-99.240;2022-09-09T02:58:04;4.18;;;2.28;;
73672;SDS011;61972;19.480;-99.240;2022-09-09T03:00:33;5.88;;;2.38;;
73672;SDS011;61972;19.480;-99.240;2022-09-09T03:03:02;2.97;;;2.15;;
73672;SDS011;61972;19.480;-99.240;2022-09-09T03:05:29;4.77;;;2.17;;
73672;SDS011;61972;19.480;-99.240;2022-09-09T03:07:58;5.03;;;2.25;;
73672;SDS011;61972;19.480;-99.240;2022-09-09T03:10:24;5.25;;;2.25;;
73672;SDS011;61972;19.480;-99.240;2022-09-09T03:12:50;4.38;;;2.00;;
73672;SDS011;61972;19.480;-99.240;2022-09-09T03:15:16;3.55;;;1.95;;
73672;SDS011;61972;19.480;-99.240;2022-09-09T03:17:43;7.23;;;2.50;;
73672;SDS011;61972;19.480;-99.240;2022-09-09T03:20:09;4.55;;;2.10;;
73672;SDS011;61972;19.480;-99.240;2022-09-09T03:23:11;3.80;;;2.10;;
73672;SDS011;61972;19.480;-99.240;2022-09-09T03:25:46;4.72;;;1.90;;
73672;SDS011;61972;19.480;-99.240;2022-09-09T03:28:17;4.72;;;1.98;;
73672;SDS011;61972;19.480;-99.240;2022-09-09T03:30:59;3.83;;;1.90;;
73672;SDS011;61972;19.480;-99.240;2022-09-09T03:33:51;3.55;;;2.05;;
73672;SDS011;61972;19.480;-99.240;2022-09-09T03:36:17;3.90;;;2.22;;
73672;SDS011;61972;19.480;-99.240;2022-09-09T03:38:46;3.13;;;1.80;;
73672;SDS011;61972;19.480;-99.240;2022-09-09T03:41:12;4.80;;;2.05;;
73672;SDS011;61972;19.480;-99.240;2022-09-09T03:43:42;5.30;;;2.30;;
73672;SDS011;61972;19.480;-99.240;2022-09-09T03:46:08;3.22;;;1.70;;
73672;SDS011;61972;19.480;-99.240;2022-09-09T03:48:43;3.33;;;2.05;;
73672;SDS011;61972;19.480;-99.240;2022-09-09T03:51:12;3.53;;;2.30;;
73672;SDS011;61972;19.480;-99.240;2022-09-09T03:53:42;4.70;;;2.50;;
73672;SDS011;61972;19.480;-99.240;2022-09-09T03:56:20;3.47;;;1.80;;
73672;SDS011;61972;19.480;-99.240;2022-09-09T03:59:06;4.18;;;2.17;;
73672;SDS011;61972;19.480;-99.240;2022-09-09T04:01:34;3.25;;;2.38;;
73672;SDS011;61972;19.480;-99.240;2022-09-09T04:04:00;4.38;;;2.13;;
73672;SDS011;61972;19.480;-99.240;2022-09-09T04:06:27;4.50;;;2.30;;
73672;SDS011;61972;19.480;-99.240;2022-09-09T04:08:53;3.67;;;2.20;;
73672;SDS011;61972;19.480;-99.240;2022-09-09T04:11:20;4.10;;;2.03;;
73672;SDS011;61972;19.480;-99.240;2022-09-09T04:13:47;4.32;;;2.40;;
73672;SDS011;61972;19.480;-99.240;2022-09-09T04:16:23;4.15;;;2.10;;
73672;SDS011;61972;19.480;-99.240;2022-09-09T04:18:49;4.25;;;2.35;;
73672;SDS011;61972;19.480;-99.240;2022-09-09T04:21:25;5.57;;;2.00;;
73672;SDS011;61972;19.480;-99.240;2022-09-09T04:23:51;6.60;;;2.40;;
73672;SDS011;61972;19.480;-99.240;2022-09-09T04:26:20;4.50;;;2.25;;
73672;SDS011;61972;19.480;-99.240;2022-09-09T04:28:48;6.13;;;2.53;;
73672;SDS011;61972;19.480;-99.240;2022-09-09T04:31:23;3.70;;;2.22;;
73672;SDS011;61972;19.480;-99.240;2022-09-09T04:33:50;4.53;;;2.23;;
73672;SDS011;61972;19.480;-99.240;2022-09-09T04:36:24;5.13;;;2.78;;
73672;SDS011;61972;19.480;-99.240;2022-09-09T04:38:50;4.57;;;2.35;;
73672;SDS011;61972;19.480;-99.240;2022-09-09T04:41:19;5.38;;;2.33;;
73672;SDS011;61972;19.480;-99.240;2022-09-09T04:43:48;5.88;;;2.30;;
73672;SDS011;61972;19.480;-99.240;2022-09-09T04:46:14;5.83;;;2.60;;
73672;SDS011;61972;19.480;-99.240;2022-09-09T04:48:45;4.35;;;2.17;;
73672;SDS011;61972;19.480;-99.240;2022-09-09T04:51:15;4.25;;;2.53;;
73672;SDS011;61972;19.480;-99.240;2022-09-09T04:53:41;5.25;;;2.70;;
73672;SDS011;61972;19.480;-99.240;2022-09-09T04:56:11;4.38;;;2.50;;
73672;SDS011;61972;19.480;-99.240;2022-09-09T04:58:46;4.53;;;2.20;;
73672;SDS011;61972;19.480;-99.240;2022-09-09T05:01:16;6.95;;;2.50;;
73672;SDS011;61972;19.480;-99.240;2022-09-09T05:03:43;4.35;;;2.65;;
73672;SDS011;61972;19.480;-99.240;2022-09-09T05:06:16;4.57;;;2.85;;
73672;SDS011;61972;19.480;-99.240;2022-09-09T05:08:46;3.85;;;2.72;;
73672;SDS011;61972;19.480;-99.240;2022-09-09T05:11:23;3.80;;;2.60;;
73672;SDS011;61972;19.480;-99.240;2022-09-09T05:13:52;5.07;;;2.40;;
73672;SDS011;61972;19.480;-99.240;2022-09-09T05:16:19;4.93;;;2.63;;
73672;SDS011;61972;19.480;-99.240;2022-09-09T05:18:46;5.85;;;2.90;;
73672;SDS011;61972;19.480;-99.240;2022-09-09T05:21:22;4.05;;;2.42;;
73672;SDS011;61972;19.480;-99.240;2022-09-09T05:23:57;5.60;;;2.57;;
73672;SDS011;61972;19.480;-99.240;2022-09-09T05:26:25;5.35;;;2.40;;
73672;SDS011;61972;19.480;-99.240;2022-09-09T05:28:55;7.78;;;2.70;;
73672;SDS011;61972;19.480;-99.240;2022-09-09T05:31:22;3.95;;;2.20;;
73672;SDS011;61972;19.480;-99.240;2022-09-09T05:33:53;3.25;;;2.28;;
73672;SDS011;61972;19.480;-99.240;2022-09-09T05:36:22;4.77;;;2.40;;
73672;SDS011;61972;19.480;-99.240;2022-09-09T05:38:48;4.97;;;2.35;;
73672;SDS011;61972;19.480;-99.240;2022-09-09T05:41:15;5.50;;;2.40;;
73672;SDS011;61972;19.480;-99.240;2022-09-09T05:43:43;4.88;;;2.30;;
73672;SDS011;61972;19.480;-99.240;2022-09-09T05:46:15;3.97;;;2.17;;
73672;SDS011;61972;19.480;-99.240;2022-09-09T05:48:51;5.73;;;2.20;;
73672;SDS011;61972;19.480;-99.240;2022-09-09T05:51:25;3.47;;;1.80;;
73672;SDS011;61972;19.480;-99.240;2022-09-09T05:53:55;3.72;;;2.10;;
73672;SDS011;61972;19.480;-99.240;2022-09-09T05:56:24;3.40;;;1.73;;
73672;SDS011;61972;19.480;-99.240;2022-09-09T05:58:55;3.97;;;2.20;;
73672;SDS011;61972;19.480;-99.240;2022-09-09T06:01:26;4.20;;;2.00;;
73672;SDS011;61972;19.480;-99.240;2022-09-09T06:04:02;3.95;;;1.90;;
73672;SDS011;61972;19.480;-99.240;2022-09-09T06:06:35;4.68;;;2.20;;
73672;SDS011;61972;19.480;-99.240;2022-09-09T06:09:04;4.35;;;2.10;;
73672;SDS011;61972;19.480;-99.240;2022-09-09T06:11:34;4.45;;;2.08;;
73672;SDS011;61972;19.480;-99.240;2022-09-09T06:14:02;5.50;;;2.10;;
73672;SDS011;61972;19.480;-99.240;2022-09-09T06:16:30;4.30;;;1.90;;
73672;SDS011;61972;19.480;-99.240;2022-09-09T06:19:00;4.35;;;1.90;;
73672;SDS011;61972;19.480;-99.240;2022-09-09T06:21:29;5.85;;;2.10;;
73672;SDS011;61972;19.480;-99.240;2022-09-09T06:23:58;3.95;;;1.85;;
73672;SDS011;61972;19.480;-99.240;2022-09-09T06:26:31;3.97;;;1.60;;
73672;SDS011;61972;19.480;-99.240;2022-09-09T06:29:02;4.13;;;1.80;;
73672;SDS011;61972;19.480;-99.240;2022-09-09T06:31:29;4.45;;;1.70;;
73672;SDS011;61972;19.480;-99.240;2022-09-09T06:33:59;4.53;;;1.60;;
73672;SDS011;61972;19.480;-99.240;2022-09-09T06:36:27;2.35;;;1.58;;
73672;SDS011;61972;19.480;-99.240;2022-09-09T06:38:56;2.60;;;1.60;;
73672;SDS011;61972;19.480;-99.240;2022-09-09T06:41:23;3.40;;;1.88;;
73672;SDS011;61972;19.480;-99.240;2022-09-09T06:43:53;3.08;;;1.95;;
73672;SDS011;61972;19.480;-99.240;2022-09-09T06:46:23;2.65;;;1.50;;
73672;SDS011;61972;19.480;-99.240;2022-09-09T06:48:58;4.25;;;1.80;;
73672;SDS011;61972;19.480;-99.240;2022-09-09T06:51:26;2.93;;;1.73;;
73672;SDS011;61972;19.480;-99.240;2022-09-09T06:53:55;2.90;;;1.75;;
73672;SDS011;61972;19.480;-99.240;2022-09-09T06:56:24;2.90;;;1.70;;
73672;SDS011;61972;19.480;-99.240;2022-09-09T06:58:53;3.33;;;1.77;;
73672;SDS011;61972;19.480;-99.240;2022-09-09T07:01:22;2.83;;;1.73;;
73672;SDS011;61972;19.480;-99.240;2022-09-09T07:03:54;3.47;;;1.90;;
73672;SDS011;61972;19.480;-99.240;2022-09-09T07:06:22;2.83;;;1.70;;
73672;SDS011;61972;19.480;-99.240;2022-09-09T07:08:56;3.35;;;1.95;;
73672;SDS011;61972;19.480;-99.240;2022-09-09T07:11:25;2.47;;;1.63;;
73672;SDS011;61972;19.480;-99.240;2022-09-09T07:13:53;5.20;;;1.60;;
73672;SDS011;61972;19.480;-99.240;2022-09-09T07:16:20;6.10;;;1.60;;
73672;SDS011;61972;19.480;-99.240;2022-09-09T07:18:50;2.40;;;1.52;;
73672;SDS011;61972;19.480;-99.240;2022-09-09T07:21:18;5.03;;;1.83;;
73672;SDS011;61972;19.480;-99.240;2022-09-09T07:23:46;4.13;;;1.80;;
73672;SDS011;61972;19.480;-99.240;2022-09-09T07:26:14;3.58;;;1.70;;
73672;SDS011;61972;19.480;-99.240;2022-09-09T07:28:42;3.80;;;1.50;;
73672;SDS011;61972;19.480;-99.240;2022-09-09T07:31:15;2.60;;;1.80;;
73672;SDS011;61972;19.480;-99.240;2022-09-09T07:33:44;4.95;;;1.90;;
73672;SDS011;61972;19.480;-99.240;2022-09-09T07:38:44;7.95;;;1.80;;
73672;SDS011;61972;19.480;-99.240;2022-09-09T07:41:16;4.30;;;1.63;;
73672;SDS011;61972;19.480;-99.240;2022-09-09T07:43:47;3.17;;;1.80;;
73672;SDS011;61972;19.480;-99.240;2022-09-09T07:46:15;2.63;;;1.67;;
73672;SDS011;61972;19.480;-99.240;2022-09-09T07:48:49;2.72;;;1.60;;
73672;SDS011;61972;19.480;-99.240;2022-09-09T07:51:27;3.65;;;1.63;;
73672;SDS011;61972;19.480;-99.240;2022-09-09T07:53:56;2.50;;;1.53;;
73672;SDS011;61972;19.480;-99.240;2022-09-09T07:56:24;2.08;;;1.40;;
73672;SDS011;61972;19.480;-99.240;2022-09-09T07:58:55;2.90;;;1.70;;
73672;SDS011;61972;19.480;-99.240;2022-09-09T08:01:23;2.70;;;1.65;;
73672;SDS011;61972;19.480;-99.240;2022-09-09T08:04:04;5.80;;;1.83;;
73672;SDS011;61972;19.480;-99.240;2022-09-09T08:06:39;4.07;;;1.90;;
73672;SDS011;61972;19.480;-99.240;2022-09-09T08:09:06;2.60;;;1.58;;
73672;SDS011;61972;19.480;-99.240;2022-09-09T08:11:33;2.67;;;1.70;;
73672;SDS011;61972;19.480;-99.240;2022-09-09T08:14:01;3.05;;;1.90;;
73672;SDS011;61972;19.480;-99.240;2022-09-09T08:16:30;2.38;;;1.50;;
73672;SDS011;61972;19.480;-99.240;2022-09-09T08:18:58;4.40;;;1.80;;
73672;SDS011;61972;19.480;-99.240;2022-09-09T08:21:27;5.07;;;1.90;;
73672;SDS011;61972;19.480;-99.240;2022-09-09T08:23:55;4.00;;;1.80;;
73672;SDS011;61972;19.480;-99.240;2022-09-09T08:26:24;6.90;;;2.05;;
73672;SDS011;61972;19.480;-99.240;2022-09-09T08:28:53;3.97;;;2.08;;
73672;SDS011;61972;19.480;-99.240;2022-09-09T08:31:25;3.93;;;1.73;;
73672;SDS011;61972;19.480;-99.240;2022-09-09T08:33:56;4.20;;;2.05;;
73672;SDS011;61972;19.480;-99.240;2022-09-09T08:36:29;3.10;;;2.00;;
73672;SDS011;61972;19.480;-99.240;2022-09-09T08:38:58;8.65;;;2.15;;
73672;SDS011;61972;19.480;-99.240;2022-09-09T08:52:47;4.38;;;3.03;;
73672;SDS011;61972;19.480;-99.240;2022-09-09T08:55:24;10.05;;;3.78;;
73672;SDS011;61972;19.480;-99.240;2022-09-09T08:57:52;5.63;;;3.63;;
73672;SDS011;61972;19.480;-99.240;2022-09-09T09:00:20;5.28;;;3.80;;
73672;SDS011;61972;19.480;-99.240;2022-09-09T09:08:17;7.05;;;4.50;;
73672;SDS011;61972;19.480;-99.240;2022-09-09T09:10:54;8.53;;;4.60;;
73672;SDS011;61972;19.480;-99.240;2022-09-09T09:16:46;7.43;;;5.00;;
73672;SDS011;61972;19.480;-99.240;2022-09-09T09:19:20;7.93;;;5.22;;
73672;SDS011;61972;19.480;-99.240;2022-09-09T09:21:57;6.72;;;5.28;;
73672;SDS011;61972;19.480;-99.240;2022-09-09T09:28:00;8.88;;;5.57;;
73672;SDS011;61972;19.480;-99.240;2022-09-09T09:30:39;7.60;;;5.78;;
73672;SDS011;61972;19.480;-99.240;2022-09-09T09:35:52;7.78;;;6.00;;
73672;SDS011;61972;19.480;-99.240;2022-09-09T09:38:22;8.23;;;6.40;;
73672;SDS011;61972;19.480;-99.240;2022-09-09T09:40:50;7.75;;;6.22;;
73672;SDS011;61972;19.480;-99.240;2022-09-09T09:43:29;9.27;;;6.38;;
73672;SDS011;61972;19.480;-99.240;2022-09-09T09:45:57;8.20;;;6.43;;
73672;SDS011;61972;19.480;-99.240;2022-09-09T09:48:25;8.27;;;6.57;;
73672;SDS011;61972;19.480;-99.240;2022-09-09T09:51:07;8.27;;;6.37;;
73672;SDS011;61972;19.480;-99.240;2022-09-09T09:53:41;8.98;;;6.32;;
73672;SDS011;61972;19.480;-99.240;2022-09-09T09:56:09;10.50;;;6.90;;
73672;SDS011;61972;19.480;-99.240;2022-09-09T10:01:19;8.98;;;7.03;;
73672;SDS011;61972;19.480;-99.240;2022-09-09T10:03:59;8.60;;;6.80;;
73672;SDS011;61972;19.480;-99.240;2022-09-09T10:06:34;8.77;;;6.95;;
73672;SDS011;61972;19.480;-99.240;2022-09-09T10:09:04;10.88;;;7.90;;
73672;SDS011;61972;19.480;-99.240;2022-09-09T10:14:30;9.02;;;7.30;;
73672;SDS011;61972;19.480;-99.240;2022-09-09T10:22:40;9.20;;;7.70;;
73672;SDS011;61972;19.480;-99.240;2022-09-09T10:25:24;10.15;;;6.93;;
73672;SDS011;61972;19.480;-99.240;2022-09-09T10:31:52;9.77;;;7.60;;
73672;SDS011;61972;19.480;-99.240;2022-09-09T10:41:00;10.23;;;7.78;;
73672;SDS011;61972;19.480;-99.240;2022-09-09T10:46:14;9.57;;;7.73;;
73672;SDS011;61972;19.480;-99.240;2022-09-09T10:51:23;11.25;;;8.27;;
73672;SDS011;61972;19.480;-99.240;2022-09-09T10:56:28;10.63;;;8.20;;
73672;SDS011;61972;19.480;-99.240;2022-09-09T10:59:07;11.07;;;7.97;;
73672;SDS011;61972;19.480;-99.240;2022-09-09T11:02:02;13.63;;;8.48;;
73672;SDS011;61972;19.480;-99.240;2022-09-09T11:04:50;10.32;;;8.25;;
73672;SDS011;61972;19.480;-99.240;2022-09-09T11:07:34;10.73;;;8.30;;
73672;SDS011;61972;19.480;-99.240;2022-09-09T11:10:05;12.05;;;8.20;;
73672;SDS011;61972;19.480;-99.240;2022-09-09T11:12:40;10.30;;;8.20;;
73672;SDS011;61972;19.480;-99.240;2022-09-09T11:15:17;11.32;;;8.48;;
73672;SDS011;61972;19.480;-99.240;2022-09-09T11:17:55;12.35;;;9.02;;
73672;SDS011;61972;19.480;-99.240;2022-09-09T11:20:25;10.40;;;8.52;;
73672;SDS011;61972;19.480;-99.240;2022-09-09T11:22:56;11.70;;;8.35;;
73672;SDS011;61972;19.480;-99.240;2022-09-09T11:36:24;10.85;;;8.63;;
73672;SDS011;61972;19.480;-99.240;2022-09-09T11:44:42;11.68;;;8.52;;
73672;SDS011;61972;19.480;-99.240;2022-09-09T11:49:52;19.58;;;8.90;;
73672;SDS011;61972;19.480;-99.240;2022-09-09T11:52:23;10.37;;;8.50;;
73672;SDS011;61972;19.480;-99.240;2022-09-09T11:55:24;15.98;;;8.57;;
73672;SDS011;61972;19.480;-99.240;2022-09-09T11:58:02;17.13;;;8.60;;
73672;SDS011;61972;19.480;-99.240;2022-09-09T12:00:44;13.90;;;8.85;;
73672;SDS011;61972;19.480;-99.240;2022-09-09T12:08:47;11.68;;;8.30;;
73672;SDS011;61972;19.480;-99.240;2022-09-09T12:11:29;17.83;;;8.63;;
73672;SDS011;61972;19.480;-99.240;2022-09-09T12:13:56;12.75;;;8.20;;
73672;SDS011;61972;19.480;-99.240;2022-09-09T12:16:32;12.88;;;8.38;;
73672;SDS011;61972;19.480;-99.240;2022-09-09T12:19:12;11.93;;;8.13;;
73672;SDS011;61972;19.480;-99.240;2022-09-09T12:22:05;11.40;;;8.18;;
73672;SDS011;61972;19.480;-99.240;2022-09-09T12:27:42;11.55;;;8.30;;
73672;SDS011;61972;19.480;-99.240;2022-09-09T12:30:29;11.02;;;8.45;;
73672;SDS011;61972;19.480;-99.240;2022-09-09T12:33:12;10.83;;;7.70;;
73672;SDS011;61972;19.480;-99.240;2022-09-09T12:35:42;12.30;;;8.48;;
73672;SDS011;61972;19.480;-99.240;2022-09-09T12:38:14;11.25;;;8.35;;
73672;SDS011;61972;19.480;-99.240;2022-09-09T12:40:54;11.45;;;8.45;;
73672;SDS011;61972;19.480;-99.240;2022-09-09T12:43:25;10.25;;;8.07;;
73672;SDS011;61972;19.480;-99.240;2022-09-09T12:45:56;9.90;;;7.80;;
73672;SDS011;61972;19.480;-99.240;2022-09-09T12:48:34;10.68;;;8.10;;
73672;SDS011;61972;19.480;-99.240;2022-09-09T12:51:16;9.95;;;8.07;;
73672;SDS011;61972;19.480;-99.240;2022-09-09T12:54:03;11.00;;;7.93;;
73672;SDS011;61972;19.480;-99.240;2022-09-09T12:56:30;10.88;;;7.82;;
73672;SDS011;61972;19.480;-99.240;2022-09-09T12:58:57;13.20;;;7.80;;
73672;SDS011;61972;19.480;-99.240;2022-09-09T13:01:28;12.07;;;8.07;;
73672;SDS011;61972;19.480;-99.240;2022-09-09T13:04:01;10.80;;;7.30;;
73672;SDS011;61972;19.480;-99.240;2022-09-09T13:06:28;11.07;;;7.88;;
73672;SDS011;61972;19.480;-99.240;2022-09-09T13:08:59;10.85;;;7.82;;
73672;SDS011;61972;19.480;-99.240;2022-09-09T13:14:05;10.70;;;7.32;;
73672;SDS011;61972;19.480;-99.240;2022-09-09T13:16:39;10.95;;;7.75;;
73672;SDS011;61972;19.480;-99.240;2022-09-09T13:19:09;11.52;;;8.00;;
73672;SDS011;61972;19.480;-99.240;2022-09-09T13:21:40;11.45;;;7.45;;
73672;SDS011;61972;19.480;-99.240;2022-09-09T13:27:03;10.45;;;7.40;;
73672;SDS011;61972;19.480;-99.240;2022-09-09T13:29:59;11.70;;;7.70;;
73672;SDS011;61972;19.480;-99.240;2022-09-09T13:32:27;14.63;;;8.65;;
73672;SDS011;61972;19.480;-99.240;2022-09-09T13:34:55;13.95;;;8.57;;
73672;SDS011;61972;19.480;-99.240;2022-09-09T13:37:31;13.13;;;8.63;;
73672;SDS011;61972;19.480;-99.240;2022-09-09T13:40:00;18.20;;;8.55;;
73672;SDS011;61972;19.480;-99.240;2022-09-09T13:42:28;13.25;;;8.20;;
73672;SDS011;61972;19.480;-99.240;2022-09-09T13:44:57;13.25;;;8.85;;
73672;SDS011;61972;19.480;-99.240;2022-09-09T13:47:35;16.17;;;9.38;;
73672;SDS011;61972;19.480;-99.240;2022-09-09T13:52:55;22.65;;;10.65;;
73672;SDS011;61972;19.480;-99.240;2022-09-09T13:55:29;20.65;;;10.25;;
73672;SDS011;61972;19.480;-99.240;2022-09-09T13:57:59;23.23;;;10.27;;
73672;SDS011;61972;19.480;-99.240;2022-09-09T14:00:28;24.13;;;10.75;;
73672;SDS011;61972;19.480;-99.240;2022-09-09T14:02:56;21.47;;;9.90;;
73672;SDS011;61972;19.480;-99.240;2022-09-09T14:05:22;21.42;;;9.57;;
73672;SDS011;61972;19.480;-99.240;2022-09-09T14:07:48;21.42;;;9.52;;
73672;SDS011;61972;19.480;-99.240;2022-09-09T14:10:15;19.60;;;10.15;;
73672;SDS011;61972;19.480;-99.240;2022-09-09T14:12:41;18.33;;;10.30;;
73672;SDS011;61972;19.480;-99.240;2022-09-09T14:15:09;16.73;;;9.33;;
73672;SDS011;61972;19.480;-99.240;2022-09-09T14:17:36;17.27;;;9.75;;
73672;SDS011;61972;19.480;-99.240;2022-09-09T14:20:03;21.17;;;9.48;;
73672;SDS011;61972;19.480;-99.240;2022-09-09T14:22:37;18.77;;;9.20;;
73672;SDS011;61972;19.480;-99.240;2022-09-09T14:25:04;18.67;;;9.30;;
73672;SDS011;61972;19.480;-99.240;2022-09-09T14:27:31;16.37;;;9.03;;
73672;SDS011;61972;19.480;-99.240;2022-09-09T14:29:58;17.00;;;9.52;;
73672;SDS011;61972;19.480;-99.240;2022-09-09T14:32:26;16.48;;;8.85;;
73672;SDS011;61972;19.480;-99.240;2022-09-09T14:34:52;16.27;;;9.40;;
73672;SDS011;61972;19.480;-99.240;2022-09-09T14:37:18;18.92;;;9.68;;
73672;SDS011;61972;19.480;-99.240;2022-09-09T14:39:48;17.03;;;9.77;;
73672;SDS011;61972;19.480;-99.240;2022-09-09T14:42:15;16.35;;;8.90;;
73672;SDS011;61972;19.480;-99.240;2022-09-09T14:44:45;14.65;;;8.85;;
73672;SDS011;61972;19.480;-99.240;2022-09-09T14:47:11;14.93;;;8.80;;
73672;SDS011;61972;19.480;-99.240;2022-09-09T14:49:37;14.25;;;8.70;;
73672;SDS011;61972;19.480;-99.240;2022-09-09T14:52:09;17.30;;;8.90;;
73672;SDS011;61972;19.480;-99.240;2022-09-09T14:54:35;13.77;;;8.95;;
73672;SDS011;61972;19.480;-99.240;2022-09-09T14:57:07;14.98;;;8.57;;
73672;SDS011;61972;19.480;-99.240;2022-09-09T14:59:33;16.60;;;9.18;;
73672;SDS011;61972;19.480;-99.240;2022-09-09T15:01:59;15.57;;;9.00;;
73672;SDS011;61972;19.480;-99.240;2022-09-09T15:04:29;13.87;;;8.47;;
73672;SDS011;61972;19.480;-99.240;2022-09-09T15:06:55;16.65;;;9.18;;
73672;SDS011;61972;19.480;-99.240;2022-09-09T15:09:21;15.98;;;9.43;;
73672;SDS011;61972;19.480;-99.240;2022-09-09T15:11:53;15.02;;;9.10;;
73672;SDS011;61972;19.480;-99.240;2022-09-09T15:14:20;18.13;;;9.52;;
73672;SDS011;61972;19.480;-99.240;2022-09-09T15:16:46;13.53;;;9.17;;
73672;SDS011;61972;19.480;-99.240;2022-09-09T15:19:12;17.13;;;8.70;;
73672;SDS011;61972;19.480;-99.240;2022-09-09T15:21:41;16.73;;;8.90;;
73672;SDS011;61972;19.480;-99.240;2022-09-09T15:24:13;15.27;;;8.95;;
73672;SDS011;61972;19.480;-99.240;2022-09-09T15:26:39;17.02;;;9.05;;
73672;SDS011;61972;19.480;-99.240;2022-09-09T15:29:10;15.67;;;8.90;;
73672;SDS011;61972;19.480;-99.240;2022-09-09T15:31:39;12.95;;;8.20;;
73672;SDS011;61972;19.480;-99.240;2022-09-09T15:34:08;14.30;;;8.70;;
73672;SDS011;61972;19.480;-99.240;2022-09-09T15:36:38;12.15;;;7.93;;
73672;SDS011;61972;19.480;-99.240;2022-09-09T15:39:11;12.65;;;7.88;;
73672;SDS011;61972;19.480;-99.240;2022-09-09T15:41:44;13.27;;;7.73;;
73672;SDS011;61972;19.480;-99.240;2022-09-09T15:44:11;13.30;;;7.88;;
73672;SDS011;61972;19.480;-99.240;2022-09-09T15:46:42;13.30;;;8.13;;
73672;SDS011;61972;19.480;-99.240;2022-09-09T15:51:40;13.35;;;7.38;;
73672;SDS011;61972;19.480;-99.240;2022-09-09T15:54:08;13.20;;;7.23;;
73672;SDS011;61972;19.480;-99.240;2022-09-09T15:56:37;11.32;;;7.38;;
73672;SDS011;61972;19.480;-99.240;2022-09-09T15:59:03;12.88;;;8.23;;
73672;SDS011;61972;19.480;-99.240;2022-09-09T16:01:29;10.75;;;7.30;;
73672;SDS011;61972;19.480;-99.240;2022-09-09T16:03:56;13.32;;;6.28;;
73672;SDS011;61972;19.480;-99.240;2022-09-09T16:06:24;13.40;;;6.27;;
73672;SDS011;61972;19.480;-99.240;2022-09-09T16:08:53;11.05;;;6.22;;
73672;SDS011;61972;19.480;-99.240;2022-09-09T16:11:25;12.00;;;5.75;;
73672;SDS011;61972;19.480;-99.240;2022-09-09T16:13:53;8.45;;;5.53;;
73672;SDS011;61972;19.480;-99.240;2022-09-09T16:16:21;9.73;;;5.72;;
73672;SDS011;61972;19.480;-99.240;2022-09-09T16:18:50;8.90;;;5.20;;
73672;SDS011;61972;19.480;-99.240;2022-09-09T16:21:25;7.90;;;5.32;;
73672;SDS011;61972;19.480;-99.240;2022-09-09T16:23:57;8.38;;;5.35;;
73672;SDS011;61972;19.480;-99.240;2022-09-09T16:26:24;8.25;;;4.90;;
73672;SDS011;61972;19.480;-99.240;2022-09-09T16:28:52;8.52;;;5.22;;
73672;SDS011;61972;19.480;-99.240;2022-09-09T16:31:20;8.53;;;5.10;;
73672;SDS011;61972;19.480;-99.240;2022-09-09T16:33:47;9.43;;;5.38;;
73672;SDS011;61972;19.480;-99.240;2022-09-09T16:36:20;9.40;;;5.68;;
73672;SDS011;61972;19.480;-99.240;2022-09-09T16:38:47;8.90;;;5.68;;
73672;SDS011;61972;19.480;-99.240;2022-09-09T16:41:17;10.40;;;5.70;;
73672;SDS011;61972;19.480;-99.240;2022-09-09T16:43:45;8.70;;;4.93;;
73672;SDS011;61972;19.480;-99.240;2022-09-09T16:46:12;9.43;;;5.93;;
73672;SDS011;61972;19.480;-99.240;2022-09-09T16:48:42;9.15;;;5.47;;
73672;SDS011;61972;19.480;-99.240;2022-09-09T16:51:16;11.20;;;5.40;;
73672;SDS011;61972;19.480;-99.240;2022-09-09T16:53:48;10.70;;;5.40;;
73672;SDS011;61972;19.480;-99.240;2022-09-09T16:56:20;9.40;;;5.80;;
73672;SDS011;61972;19.480;-99.240;2022-09-09T16:58:51;10.82;;;5.57;;
73672;SDS011;61972;19.480;-99.240;2022-09-09T17:01:21;9.88;;;6.63;;
73672;SDS011;61972;19.480;-99.240;2022-09-09T17:03:58;10.85;;;6.57;;
73672;SDS011;61972;19.480;-99.240;2022-09-09T17:06:29;10.05;;;7.00;;